<?xml version="1.0" encoding="UTF-8" standalone="no" ?>
<gpx xmlns="http://www.topografix.com/GPX/1/1" xmlns:xsi="http://www.w3.org/2001/XMLSchema-instance" xsi:schemaLocation="http://www.topografix.com/GPX/1/1 http://www.topografix.com/GPX/1/1/gpx.xsd" version="1.1" creator="VisuGPX - https://www.visugpx.com">
  <metadata>
    <name>randonnée raquettes hohneck</name>
    <desc><![CDATA[randonnée raquettes hohneck]]></desc>
  </metadata>
  <trk>
    <name><![CDATA[2015-02-24 15:18:01]]></name>
    <trkseg>
      <trkpt lat="48.05245" lon="7.01457">
        <ele>1246.49</ele>
        <time>2015-02-24T09:15:51Z</time>
      </trkpt>
      <trkpt lat="48.05237" lon="7.01458">
        <ele>1240.72</ele>
        <time>2015-02-24T09:16:11Z</time>
      </trkpt>
      <trkpt lat="48.05233" lon="7.01446">
        <ele>1241.2</ele>
        <time>2015-02-24T09:20:19Z</time>
      </trkpt>
      <trkpt lat="48.05222" lon="7.01457">
        <ele>1241.2</ele>
        <time>2015-02-24T09:21:01Z</time>
      </trkpt>
      <trkpt lat="48.05207" lon="7.0146">
        <ele>1242.64</ele>
        <time>2015-02-24T09:21:30Z</time>
      </trkpt>
      <trkpt lat="48.05194" lon="7.01475">
        <ele>1243.6</ele>
        <time>2015-02-24T09:23:14Z</time>
      </trkpt>
      <trkpt lat="48.05193" lon="7.01493">
        <ele>1243.12</ele>
        <time>2015-02-24T09:25:01Z</time>
      </trkpt>
      <trkpt lat="48.05191" lon="7.01526">
        <ele>1244.56</ele>
        <time>2015-02-24T09:25:23Z</time>
      </trkpt>
      <trkpt lat="48.05191" lon="7.01559">
        <ele>1246.49</ele>
        <time>2015-02-24T09:25:42Z</time>
      </trkpt>
      <trkpt lat="48.0519" lon="7.01591">
        <ele>1247.45</ele>
        <time>2015-02-24T09:25:59Z</time>
      </trkpt>
      <trkpt lat="48.05179" lon="7.01611">
        <ele>1248.41</ele>
        <time>2015-02-24T09:26:39Z</time>
      </trkpt>
      <trkpt lat="48.05163" lon="7.01602">
        <ele>1248.89</ele>
        <time>2015-02-24T09:26:59Z</time>
      </trkpt>
      <trkpt lat="48.05141" lon="7.01582">
        <ele>1249.37</ele>
        <time>2015-02-24T09:27:29Z</time>
      </trkpt>
      <trkpt lat="48.05118" lon="7.0158">
        <ele>1250.33</ele>
        <time>2015-02-24T09:27:56Z</time>
      </trkpt>
      <trkpt lat="48.05093" lon="7.01579">
        <ele>1251.29</ele>
        <time>2015-02-24T09:28:24Z</time>
      </trkpt>
      <trkpt lat="48.05073" lon="7.01574">
        <ele>1252.25</ele>
        <time>2015-02-24T09:28:46Z</time>
      </trkpt>
      <trkpt lat="48.05052" lon="7.01566">
        <ele>1252.74</ele>
        <time>2015-02-24T09:29:12Z</time>
      </trkpt>
      <trkpt lat="48.05027" lon="7.01554">
        <ele>1254.18</ele>
        <time>2015-02-24T09:29:39Z</time>
      </trkpt>
      <trkpt lat="48.05001" lon="7.01543">
        <ele>1256.58</ele>
        <time>2015-02-24T09:30:04Z</time>
      </trkpt>
      <trkpt lat="48.04982" lon="7.01536">
        <ele>1258.5</ele>
        <time>2015-02-24T09:30:30Z</time>
      </trkpt>
      <trkpt lat="48.04974" lon="7.0151">
        <ele>1258.5</ele>
        <time>2015-02-24T09:30:55Z</time>
      </trkpt>
      <trkpt lat="48.04967" lon="7.01482">
        <ele>1259.46</ele>
        <time>2015-02-24T09:31:20Z</time>
      </trkpt>
      <trkpt lat="48.04944" lon="7.01458">
        <ele>1260.91</ele>
        <time>2015-02-24T09:31:52Z</time>
      </trkpt>
      <trkpt lat="48.04923" lon="7.0144">
        <ele>1262.83</ele>
        <time>2015-02-24T09:32:24Z</time>
      </trkpt>
      <trkpt lat="48.04898" lon="7.01453">
        <ele>1265.71</ele>
        <time>2015-02-24T09:33:01Z</time>
      </trkpt>
      <trkpt lat="48.04879" lon="7.01476">
        <ele>1268.12</ele>
        <time>2015-02-24T09:33:34Z</time>
      </trkpt>
      <trkpt lat="48.04863" lon="7.01469">
        <ele>1271</ele>
        <time>2015-02-24T09:34:39Z</time>
      </trkpt>
      <trkpt lat="48.04842" lon="7.01459">
        <ele>1272.92</ele>
        <time>2015-02-24T09:35:10Z</time>
      </trkpt>
      <trkpt lat="48.04826" lon="7.0144">
        <ele>1275.81</ele>
        <time>2015-02-24T09:35:33Z</time>
      </trkpt>
      <trkpt lat="48.04809" lon="7.01429">
        <ele>1277.73</ele>
        <time>2015-02-24T09:36:27Z</time>
      </trkpt>
      <trkpt lat="48.04795" lon="7.01412">
        <ele>1276.77</ele>
        <time>2015-02-24T09:37:01Z</time>
      </trkpt>
      <trkpt lat="48.04779" lon="7.01397">
        <ele>1279.65</ele>
        <time>2015-02-24T09:37:24Z</time>
      </trkpt>
      <trkpt lat="48.04762" lon="7.01385">
        <ele>1280.13</ele>
        <time>2015-02-24T09:37:45Z</time>
      </trkpt>
      <trkpt lat="48.04749" lon="7.0137">
        <ele>1281.57</ele>
        <time>2015-02-24T09:38:07Z</time>
      </trkpt>
      <trkpt lat="48.04733" lon="7.01355">
        <ele>1284.46</ele>
        <time>2015-02-24T09:38:30Z</time>
      </trkpt>
      <trkpt lat="48.04719" lon="7.01333">
        <ele>1285.42</ele>
        <time>2015-02-24T09:38:50Z</time>
      </trkpt>
      <trkpt lat="48.04708" lon="7.01316">
        <ele>1286.38</ele>
        <time>2015-02-24T09:40:08Z</time>
      </trkpt>
      <trkpt lat="48.04694" lon="7.01298">
        <ele>1287.82</ele>
        <time>2015-02-24T09:40:31Z</time>
      </trkpt>
      <trkpt lat="48.04682" lon="7.01278">
        <ele>1289.27</ele>
        <time>2015-02-24T09:40:52Z</time>
      </trkpt>
      <trkpt lat="48.04669" lon="7.01259">
        <ele>1290.71</ele>
        <time>2015-02-24T09:41:13Z</time>
      </trkpt>
      <trkpt lat="48.04656" lon="7.01239">
        <ele>1292.63</ele>
        <time>2015-02-24T09:41:33Z</time>
      </trkpt>
      <trkpt lat="48.04643" lon="7.01222">
        <ele>1294.07</ele>
        <time>2015-02-24T09:41:53Z</time>
      </trkpt>
      <trkpt lat="48.04628" lon="7.01204">
        <ele>1294.55</ele>
        <time>2015-02-24T09:42:13Z</time>
      </trkpt>
      <trkpt lat="48.04609" lon="7.01199">
        <ele>1298.4</ele>
        <time>2015-02-24T09:42:32Z</time>
      </trkpt>
      <trkpt lat="48.04591" lon="7.01197">
        <ele>1297.92</ele>
        <time>2015-02-24T09:42:50Z</time>
      </trkpt>
      <trkpt lat="48.04573" lon="7.01196">
        <ele>1297.92</ele>
        <time>2015-02-24T09:43:08Z</time>
      </trkpt>
      <trkpt lat="48.04554" lon="7.01195">
        <ele>1300.32</ele>
        <time>2015-02-24T09:43:26Z</time>
      </trkpt>
      <trkpt lat="48.04537" lon="7.01195">
        <ele>1299.36</ele>
        <time>2015-02-24T09:43:44Z</time>
      </trkpt>
      <trkpt lat="48.04517" lon="7.01193">
        <ele>1299.84</ele>
        <time>2015-02-24T09:44:02Z</time>
      </trkpt>
      <trkpt lat="48.04501" lon="7.01184">
        <ele>1300.8</ele>
        <time>2015-02-24T09:44:22Z</time>
      </trkpt>
      <trkpt lat="48.04486" lon="7.01171">
        <ele>1301.76</ele>
        <time>2015-02-24T09:44:42Z</time>
      </trkpt>
      <trkpt lat="48.0447" lon="7.01155">
        <ele>1303.2</ele>
        <time>2015-02-24T09:45:02Z</time>
      </trkpt>
      <trkpt lat="48.04451" lon="7.01146">
        <ele>1306.09</ele>
        <time>2015-02-24T09:46:03Z</time>
      </trkpt>
      <trkpt lat="48.04443" lon="7.01138">
        <ele>1305.13</ele>
        <time>2015-02-24T09:50:34Z</time>
      </trkpt>
      <trkpt lat="48.04426" lon="7.01123">
        <ele>1305.13</ele>
        <time>2015-02-24T09:50:51Z</time>
      </trkpt>
      <trkpt lat="48.04411" lon="7.01107">
        <ele>1304.65</ele>
        <time>2015-02-24T09:51:08Z</time>
      </trkpt>
      <trkpt lat="48.04397" lon="7.01092">
        <ele>1304.65</ele>
        <time>2015-02-24T09:51:25Z</time>
      </trkpt>
      <trkpt lat="48.04383" lon="7.01072">
        <ele>1307.05</ele>
        <time>2015-02-24T09:51:43Z</time>
      </trkpt>
      <trkpt lat="48.04368" lon="7.01058">
        <ele>1307.53</ele>
        <time>2015-02-24T09:52:01Z</time>
      </trkpt>
      <trkpt lat="48.04354" lon="7.01044">
        <ele>1308.49</ele>
        <time>2015-02-24T09:52:19Z</time>
      </trkpt>
      <trkpt lat="48.04341" lon="7.01025">
        <ele>1308.97</ele>
        <time>2015-02-24T09:52:37Z</time>
      </trkpt>
      <trkpt lat="48.04328" lon="7.01008">
        <ele>1311.38</ele>
        <time>2015-02-24T09:52:55Z</time>
      </trkpt>
      <trkpt lat="48.04316" lon="7.00995">
        <ele>1312.34</ele>
        <time>2015-02-24T09:53:12Z</time>
      </trkpt>
      <trkpt lat="48.04304" lon="7.00975">
        <ele>1312.82</ele>
        <time>2015-02-24T09:53:30Z</time>
      </trkpt>
      <trkpt lat="48.04289" lon="7.00963">
        <ele>1312.82</ele>
        <time>2015-02-24T09:53:49Z</time>
      </trkpt>
      <trkpt lat="48.04271" lon="7.00974">
        <ele>1313.78</ele>
        <time>2015-02-24T09:54:08Z</time>
      </trkpt>
      <trkpt lat="48.04255" lon="7.00987">
        <ele>1314.26</ele>
        <time>2015-02-24T09:54:25Z</time>
      </trkpt>
      <trkpt lat="48.0424" lon="7.01003">
        <ele>1313.78</ele>
        <time>2015-02-24T09:54:41Z</time>
      </trkpt>
      <trkpt lat="48.04224" lon="7.01017">
        <ele>1312.34</ele>
        <time>2015-02-24T09:54:58Z</time>
      </trkpt>
      <trkpt lat="48.04205" lon="7.01027">
        <ele>1310.41</ele>
        <time>2015-02-24T09:55:15Z</time>
      </trkpt>
      <trkpt lat="48.0419" lon="7.01039">
        <ele>1308.49</ele>
        <time>2015-02-24T09:55:33Z</time>
      </trkpt>
      <trkpt lat="48.04174" lon="7.01051">
        <ele>1304.65</ele>
        <time>2015-02-24T09:55:53Z</time>
      </trkpt>
      <trkpt lat="48.04159" lon="7.01062">
        <ele>1302.24</ele>
        <time>2015-02-24T09:56:39Z</time>
      </trkpt>
      <trkpt lat="48.04144" lon="7.01074">
        <ele>1302.24</ele>
        <time>2015-02-24T09:56:57Z</time>
      </trkpt>
      <trkpt lat="48.0413" lon="7.01088">
        <ele>1305.61</ele>
        <time>2015-02-24T09:57:22Z</time>
      </trkpt>
      <trkpt lat="48.04113" lon="7.01101">
        <ele>1304.17</ele>
        <time>2015-02-24T09:57:57Z</time>
      </trkpt>
      <trkpt lat="48.04097" lon="7.01112">
        <ele>1305.13</ele>
        <time>2015-02-24T09:58:16Z</time>
      </trkpt>
      <trkpt lat="48.04081" lon="7.01123">
        <ele>1308.97</ele>
        <time>2015-02-24T09:58:35Z</time>
      </trkpt>
      <trkpt lat="48.04065" lon="7.01135">
        <ele>1311.38</ele>
        <time>2015-02-24T09:58:55Z</time>
      </trkpt>
      <trkpt lat="48.04048" lon="7.01147">
        <ele>1313.78</ele>
        <time>2015-02-24T09:59:16Z</time>
      </trkpt>
      <trkpt lat="48.04032" lon="7.0116">
        <ele>1314.74</ele>
        <time>2015-02-24T09:59:36Z</time>
      </trkpt>
      <trkpt lat="48.04016" lon="7.01171">
        <ele>1315.7</ele>
        <time>2015-02-24T09:59:56Z</time>
      </trkpt>
      <trkpt lat="48.03999" lon="7.01182">
        <ele>1317.62</ele>
        <time>2015-02-24T10:00:16Z</time>
      </trkpt>
      <trkpt lat="48.03984" lon="7.01194">
        <ele>1320.51</ele>
        <time>2015-02-24T10:00:36Z</time>
      </trkpt>
      <trkpt lat="48.0397" lon="7.01203">
        <ele>1323.39</ele>
        <time>2015-02-24T10:01:33Z</time>
      </trkpt>
      <trkpt lat="48.03953" lon="7.01213">
        <ele>1326.28</ele>
        <time>2015-02-24T10:01:53Z</time>
      </trkpt>
      <trkpt lat="48.03937" lon="7.01224">
        <ele>1327.24</ele>
        <time>2015-02-24T10:02:12Z</time>
      </trkpt>
      <trkpt lat="48.0392" lon="7.01237">
        <ele>1330.12</ele>
        <time>2015-02-24T10:02:34Z</time>
      </trkpt>
      <trkpt lat="48.03905" lon="7.01251">
        <ele>1331.08</ele>
        <time>2015-02-24T10:02:54Z</time>
      </trkpt>
      <trkpt lat="48.0389" lon="7.01266">
        <ele>1333.49</ele>
        <time>2015-02-24T10:03:13Z</time>
      </trkpt>
      <trkpt lat="48.03877" lon="7.01285">
        <ele>1333.97</ele>
        <time>2015-02-24T10:03:32Z</time>
      </trkpt>
      <trkpt lat="48.03864" lon="7.01304">
        <ele>1336.85</ele>
        <time>2015-02-24T10:03:51Z</time>
      </trkpt>
      <trkpt lat="48.0385" lon="7.01322">
        <ele>1339.25</ele>
        <time>2015-02-24T10:04:10Z</time>
      </trkpt>
      <trkpt lat="48.03835" lon="7.01339">
        <ele>1342.62</ele>
        <time>2015-02-24T10:04:30Z</time>
      </trkpt>
      <trkpt lat="48.03821" lon="7.01352">
        <ele>1343.58</ele>
        <time>2015-02-24T10:04:50Z</time>
      </trkpt>
      <trkpt lat="48.03806" lon="7.01364">
        <ele>1345.5</ele>
        <time>2015-02-24T10:05:09Z</time>
      </trkpt>
      <trkpt lat="48.03797" lon="7.01388">
        <ele>1347.91</ele>
        <time>2015-02-24T10:05:30Z</time>
      </trkpt>
      <trkpt lat="48.03798" lon="7.01399">
        <ele>1347.91</ele>
        <time>2015-02-24T10:08:18Z</time>
      </trkpt>
      <trkpt lat="48.03806" lon="7.01424">
        <ele>1351.27</ele>
        <time>2015-02-24T10:08:42Z</time>
      </trkpt>
      <trkpt lat="48.03806" lon="7.0145">
        <ele>1355.12</ele>
        <time>2015-02-24T10:09:05Z</time>
      </trkpt>
      <trkpt lat="48.03805" lon="7.01478">
        <ele>1358</ele>
        <time>2015-02-24T10:09:29Z</time>
      </trkpt>
      <trkpt lat="48.03801" lon="7.01503">
        <ele>1361.84</ele>
        <time>2015-02-24T10:09:51Z</time>
      </trkpt>
      <trkpt lat="48.03793" lon="7.0151">
        <ele>1366.65</ele>
        <time>2015-02-24T10:10:15Z</time>
      </trkpt>
      <trkpt lat="48.03778" lon="7.01524">
        <ele>1367.13</ele>
        <time>2015-02-24T10:10:37Z</time>
      </trkpt>
      <trkpt lat="48.03769" lon="7.01549">
        <ele>1367.61</ele>
        <time>2015-02-24T10:10:57Z</time>
      </trkpt>
      <trkpt lat="48.03764" lon="7.0157">
        <ele>1369.05</ele>
        <time>2015-02-24T10:11:49Z</time>
      </trkpt>
      <trkpt lat="48.03756" lon="7.01574">
        <ele>1370.02</ele>
        <time>2015-02-24T10:12:59Z</time>
      </trkpt>
      <trkpt lat="48.03753" lon="7.0158">
        <ele>1361.36</ele>
        <time>2015-02-24T10:15:29Z</time>
      </trkpt>
      <trkpt lat="48.03751" lon="7.01581">
        <ele>1367.13</ele>
        <time>2015-02-24T10:22:19Z</time>
      </trkpt>
      <trkpt lat="48.0375" lon="7.01582">
        <ele>1370.5</ele>
        <time>2015-02-24T10:23:45Z</time>
      </trkpt>
      <trkpt lat="48.03741" lon="7.01568">
        <ele>1366.17</ele>
        <time>2015-02-24T10:25:06Z</time>
      </trkpt>
      <trkpt lat="48.03739" lon="7.01543">
        <ele>1366.17</ele>
        <time>2015-02-24T10:26:10Z</time>
      </trkpt>
      <trkpt lat="48.03732" lon="7.01541">
        <ele>1361.84</ele>
        <time>2015-02-24T10:28:37Z</time>
      </trkpt>
      <trkpt lat="48.03728" lon="7.01517">
        <ele>1358.96</ele>
        <time>2015-02-24T10:29:04Z</time>
      </trkpt>
      <trkpt lat="48.03744" lon="7.01501">
        <ele>1358.96</ele>
        <time>2015-02-24T10:29:26Z</time>
      </trkpt>
      <trkpt lat="48.0376" lon="7.01488">
        <ele>1357.52</ele>
        <time>2015-02-24T10:29:48Z</time>
      </trkpt>
      <trkpt lat="48.03777" lon="7.01486">
        <ele>1357.52</ele>
        <time>2015-02-24T10:30:09Z</time>
      </trkpt>
      <trkpt lat="48.03795" lon="7.01492">
        <ele>1358.96</ele>
        <time>2015-02-24T10:30:31Z</time>
      </trkpt>
      <trkpt lat="48.03812" lon="7.01502">
        <ele>1357.52</ele>
        <time>2015-02-24T10:30:55Z</time>
      </trkpt>
      <trkpt lat="48.03825" lon="7.0152">
        <ele>1357.04</ele>
        <time>2015-02-24T10:31:15Z</time>
      </trkpt>
      <trkpt lat="48.03834" lon="7.01543">
        <ele>1358.48</ele>
        <time>2015-02-24T10:31:34Z</time>
      </trkpt>
      <trkpt lat="48.03839" lon="7.0157">
        <ele>1357.52</ele>
        <time>2015-02-24T10:31:54Z</time>
      </trkpt>
      <trkpt lat="48.03843" lon="7.01597">
        <ele>1358</ele>
        <time>2015-02-24T10:32:13Z</time>
      </trkpt>
      <trkpt lat="48.03844" lon="7.01625">
        <ele>1357.04</ele>
        <time>2015-02-24T10:32:33Z</time>
      </trkpt>
      <trkpt lat="48.03839" lon="7.01652">
        <ele>1357.52</ele>
        <time>2015-02-24T10:32:53Z</time>
      </trkpt>
      <trkpt lat="48.03829" lon="7.01675">
        <ele>1357.52</ele>
        <time>2015-02-24T10:33:11Z</time>
      </trkpt>
      <trkpt lat="48.03816" lon="7.01692">
        <ele>1358</ele>
        <time>2015-02-24T10:33:30Z</time>
      </trkpt>
      <trkpt lat="48.03803" lon="7.0171">
        <ele>1356.56</ele>
        <time>2015-02-24T10:33:51Z</time>
      </trkpt>
      <trkpt lat="48.03794" lon="7.01732">
        <ele>1356.08</ele>
        <time>2015-02-24T10:34:11Z</time>
      </trkpt>
      <trkpt lat="48.03787" lon="7.01756">
        <ele>1352.23</ele>
        <time>2015-02-24T10:34:32Z</time>
      </trkpt>
      <trkpt lat="48.03783" lon="7.01785">
        <ele>1347.91</ele>
        <time>2015-02-24T10:34:55Z</time>
      </trkpt>
      <trkpt lat="48.03775" lon="7.01808">
        <ele>1343.1</ele>
        <time>2015-02-24T10:35:16Z</time>
      </trkpt>
      <trkpt lat="48.03763" lon="7.01825">
        <ele>1340.7</ele>
        <time>2015-02-24T10:35:35Z</time>
      </trkpt>
      <trkpt lat="48.0375" lon="7.01841">
        <ele>1337.33</ele>
        <time>2015-02-24T10:35:57Z</time>
      </trkpt>
      <trkpt lat="48.03735" lon="7.01856">
        <ele>1334.93</ele>
        <time>2015-02-24T10:36:21Z</time>
      </trkpt>
      <trkpt lat="48.0372" lon="7.01871">
        <ele>1330.6</ele>
        <time>2015-02-24T10:36:42Z</time>
      </trkpt>
      <trkpt lat="48.03709" lon="7.01894">
        <ele>1329.64</ele>
        <time>2015-02-24T10:37:02Z</time>
      </trkpt>
      <trkpt lat="48.03705" lon="7.01918">
        <ele>1325.8</ele>
        <time>2015-02-24T10:37:52Z</time>
      </trkpt>
      <trkpt lat="48.03703" lon="7.01924">
        <ele>1323.87</ele>
        <time>2015-02-24T10:42:29Z</time>
      </trkpt>
      <trkpt lat="48.03705" lon="7.01954">
        <ele>1321.95</ele>
        <time>2015-02-24T10:42:50Z</time>
      </trkpt>
      <trkpt lat="48.03712" lon="7.01978">
        <ele>1319.07</ele>
        <time>2015-02-24T10:43:11Z</time>
      </trkpt>
      <trkpt lat="48.03714" lon="7.02004">
        <ele>1317.14</ele>
        <time>2015-02-24T10:43:30Z</time>
      </trkpt>
      <trkpt lat="48.03714" lon="7.02033">
        <ele>1313.78</ele>
        <time>2015-02-24T10:43:50Z</time>
      </trkpt>
      <trkpt lat="48.03716" lon="7.0206">
        <ele>1312.34</ele>
        <time>2015-02-24T10:44:07Z</time>
      </trkpt>
      <trkpt lat="48.03717" lon="7.02086">
        <ele>1310.9</ele>
        <time>2015-02-24T10:44:30Z</time>
      </trkpt>
      <trkpt lat="48.03714" lon="7.02102">
        <ele>1308.49</ele>
        <time>2015-02-24T10:45:56Z</time>
      </trkpt>
      <trkpt lat="48.03732" lon="7.02091">
        <ele>1309.45</ele>
        <time>2015-02-24T10:46:33Z</time>
      </trkpt>
      <trkpt lat="48.0374" lon="7.0207">
        <ele>1310.9</ele>
        <time>2015-02-24T10:48:11Z</time>
      </trkpt>
      <trkpt lat="48.03751" lon="7.0205">
        <ele>1311.38</ele>
        <time>2015-02-24T10:48:33Z</time>
      </trkpt>
      <trkpt lat="48.03765" lon="7.02032">
        <ele>1310.9</ele>
        <time>2015-02-24T10:48:53Z</time>
      </trkpt>
      <trkpt lat="48.03778" lon="7.02012">
        <ele>1312.82</ele>
        <time>2015-02-24T10:49:13Z</time>
      </trkpt>
      <trkpt lat="48.0379" lon="7.0199">
        <ele>1313.3</ele>
        <time>2015-02-24T10:49:34Z</time>
      </trkpt>
      <trkpt lat="48.03803" lon="7.01973">
        <ele>1314.74</ele>
        <time>2015-02-24T10:49:54Z</time>
      </trkpt>
      <trkpt lat="48.03796" lon="7.01949">
        <ele>1318.59</ele>
        <time>2015-02-24T10:50:47Z</time>
      </trkpt>
      <trkpt lat="48.03786" lon="7.01926">
        <ele>1321.47</ele>
        <time>2015-02-24T10:51:16Z</time>
      </trkpt>
      <trkpt lat="48.03776" lon="7.01902">
        <ele>1324.83</ele>
        <time>2015-02-24T10:51:39Z</time>
      </trkpt>
      <trkpt lat="48.03765" lon="7.0188">
        <ele>1328.68</ele>
        <time>2015-02-24T10:52:04Z</time>
      </trkpt>
      <trkpt lat="48.03762" lon="7.01862">
        <ele>1330.6</ele>
        <time>2015-02-24T10:54:03Z</time>
      </trkpt>
      <trkpt lat="48.03765" lon="7.01836">
        <ele>1334.93</ele>
        <time>2015-02-24T10:54:26Z</time>
      </trkpt>
      <trkpt lat="48.03774" lon="7.01812">
        <ele>1338.29</ele>
        <time>2015-02-24T10:54:50Z</time>
      </trkpt>
      <trkpt lat="48.03783" lon="7.01788">
        <ele>1344.54</ele>
        <time>2015-02-24T10:55:16Z</time>
      </trkpt>
      <trkpt lat="48.03786" lon="7.01768">
        <ele>1347.43</ele>
        <time>2015-02-24T10:55:58Z</time>
      </trkpt>
      <trkpt lat="48.0379" lon="7.01742">
        <ele>1351.75</ele>
        <time>2015-02-24T10:56:25Z</time>
      </trkpt>
      <trkpt lat="48.03799" lon="7.01718">
        <ele>1354.15</ele>
        <time>2015-02-24T10:56:47Z</time>
      </trkpt>
      <trkpt lat="48.03814" lon="7.01699">
        <ele>1353.67</ele>
        <time>2015-02-24T10:57:08Z</time>
      </trkpt>
      <trkpt lat="48.03829" lon="7.01683">
        <ele>1354.15</ele>
        <time>2015-02-24T10:57:28Z</time>
      </trkpt>
      <trkpt lat="48.03841" lon="7.01662">
        <ele>1354.63</ele>
        <time>2015-02-24T10:57:48Z</time>
      </trkpt>
      <trkpt lat="48.03849" lon="7.01637">
        <ele>1353.19</ele>
        <time>2015-02-24T10:58:11Z</time>
      </trkpt>
      <trkpt lat="48.03853" lon="7.01612">
        <ele>1353.67</ele>
        <time>2015-02-24T10:58:36Z</time>
      </trkpt>
      <trkpt lat="48.03862" lon="7.01589">
        <ele>1352.71</ele>
        <time>2015-02-24T10:58:55Z</time>
      </trkpt>
      <trkpt lat="48.03872" lon="7.01566">
        <ele>1350.79</ele>
        <time>2015-02-24T10:59:15Z</time>
      </trkpt>
      <trkpt lat="48.03887" lon="7.0155">
        <ele>1348.87</ele>
        <time>2015-02-24T10:59:34Z</time>
      </trkpt>
      <trkpt lat="48.039" lon="7.01531">
        <ele>1347.43</ele>
        <time>2015-02-24T10:59:53Z</time>
      </trkpt>
      <trkpt lat="48.03912" lon="7.01512">
        <ele>1345.02</ele>
        <time>2015-02-24T11:00:13Z</time>
      </trkpt>
      <trkpt lat="48.03926" lon="7.01494">
        <ele>1342.14</ele>
        <time>2015-02-24T11:00:36Z</time>
      </trkpt>
      <trkpt lat="48.03944" lon="7.01478">
        <ele>1339.73</ele>
        <time>2015-02-24T11:00:55Z</time>
      </trkpt>
      <trkpt lat="48.03959" lon="7.01461">
        <ele>1338.29</ele>
        <time>2015-02-24T11:01:15Z</time>
      </trkpt>
      <trkpt lat="48.03962" lon="7.01438">
        <ele>1338.29</ele>
        <time>2015-02-24T11:01:35Z</time>
      </trkpt>
      <trkpt lat="48.03963" lon="7.01438">
        <ele>1336.85</ele>
        <time>2015-02-24T11:04:51Z</time>
      </trkpt>
      <trkpt lat="48.03973" lon="7.01425">
        <ele>1335.89</ele>
        <time>2015-02-24T11:06:03Z</time>
      </trkpt>
      <trkpt lat="48.03988" lon="7.0141">
        <ele>1333.97</ele>
        <time>2015-02-24T11:06:20Z</time>
      </trkpt>
      <trkpt lat="48.04004" lon="7.01394">
        <ele>1331.56</ele>
        <time>2015-02-24T11:06:38Z</time>
      </trkpt>
      <trkpt lat="48.04018" lon="7.01376">
        <ele>1330.6</ele>
        <time>2015-02-24T11:07:01Z</time>
      </trkpt>
      <trkpt lat="48.04031" lon="7.01356">
        <ele>1327.24</ele>
        <time>2015-02-24T11:07:18Z</time>
      </trkpt>
      <trkpt lat="48.04045" lon="7.01339">
        <ele>1325.8</ele>
        <time>2015-02-24T11:07:36Z</time>
      </trkpt>
      <trkpt lat="48.0406" lon="7.01322">
        <ele>1323.39</ele>
        <time>2015-02-24T11:07:53Z</time>
      </trkpt>
      <trkpt lat="48.04076" lon="7.01305">
        <ele>1320.99</ele>
        <time>2015-02-24T11:08:10Z</time>
      </trkpt>
      <trkpt lat="48.0409" lon="7.01285">
        <ele>1319.07</ele>
        <time>2015-02-24T11:08:27Z</time>
      </trkpt>
      <trkpt lat="48.04104" lon="7.01271">
        <ele>1316.66</ele>
        <time>2015-02-24T11:08:45Z</time>
      </trkpt>
      <trkpt lat="48.04115" lon="7.01249">
        <ele>1313.78</ele>
        <time>2015-02-24T11:09:01Z</time>
      </trkpt>
      <trkpt lat="48.04119" lon="7.01222">
        <ele>1311.38</ele>
        <time>2015-02-24T11:09:17Z</time>
      </trkpt>
      <trkpt lat="48.04128" lon="7.01197">
        <ele>1308.01</ele>
        <time>2015-02-24T11:09:37Z</time>
      </trkpt>
      <trkpt lat="48.04139" lon="7.01175">
        <ele>1306.09</ele>
        <time>2015-02-24T11:09:58Z</time>
      </trkpt>
      <trkpt lat="48.04146" lon="7.01151">
        <ele>1303.69</ele>
        <time>2015-02-24T11:10:50Z</time>
      </trkpt>
      <trkpt lat="48.04148" lon="7.01127">
        <ele>1296.48</ele>
        <time>2015-02-24T11:11:14Z</time>
      </trkpt>
      <trkpt lat="48.04164" lon="7.01111">
        <ele>1291.67</ele>
        <time>2015-02-24T11:11:36Z</time>
      </trkpt>
      <trkpt lat="48.04177" lon="7.01109">
        <ele>1291.67</ele>
        <time>2015-02-24T11:14:49Z</time>
      </trkpt>
      <trkpt lat="48.04195" lon="7.01115">
        <ele>1291.67</ele>
        <time>2015-02-24T11:15:08Z</time>
      </trkpt>
      <trkpt lat="48.04212" lon="7.01125">
        <ele>1292.15</ele>
        <time>2015-02-24T11:15:26Z</time>
      </trkpt>
      <trkpt lat="48.04229" lon="7.01134">
        <ele>1293.59</ele>
        <time>2015-02-24T11:15:44Z</time>
      </trkpt>
      <trkpt lat="48.04247" lon="7.01143">
        <ele>1296.96</ele>
        <time>2015-02-24T11:16:03Z</time>
      </trkpt>
      <trkpt lat="48.04263" lon="7.01152">
        <ele>1299.84</ele>
        <time>2015-02-24T11:16:26Z</time>
      </trkpt>
      <trkpt lat="48.04278" lon="7.01164">
        <ele>1305.61</ele>
        <time>2015-02-24T11:17:28Z</time>
      </trkpt>
      <trkpt lat="48.04296" lon="7.01174">
        <ele>1298.88</ele>
        <time>2015-02-24T11:17:46Z</time>
      </trkpt>
      <trkpt lat="48.04312" lon="7.01185">
        <ele>1297.92</ele>
        <time>2015-02-24T11:18:33Z</time>
      </trkpt>
      <trkpt lat="48.0433" lon="7.01193">
        <ele>1297.44</ele>
        <time>2015-02-24T11:18:49Z</time>
      </trkpt>
      <trkpt lat="48.04349" lon="7.01194">
        <ele>1295.03</ele>
        <time>2015-02-24T11:19:04Z</time>
      </trkpt>
      <trkpt lat="48.04368" lon="7.01198">
        <ele>1294.55</ele>
        <time>2015-02-24T11:19:19Z</time>
      </trkpt>
      <trkpt lat="48.04387" lon="7.01206">
        <ele>1293.59</ele>
        <time>2015-02-24T11:19:34Z</time>
      </trkpt>
      <trkpt lat="48.04403" lon="7.01209">
        <ele>1294.07</ele>
        <time>2015-02-24T11:20:12Z</time>
      </trkpt>
      <trkpt lat="48.04419" lon="7.01205">
        <ele>1295.03</ele>
        <time>2015-02-24T11:20:53Z</time>
      </trkpt>
      <trkpt lat="48.04433" lon="7.01217">
        <ele>1294.07</ele>
        <time>2015-02-24T11:21:13Z</time>
      </trkpt>
      <trkpt lat="48.04451" lon="7.01228">
        <ele>1292.15</ele>
        <time>2015-02-24T11:22:17Z</time>
      </trkpt>
      <trkpt lat="48.04468" lon="7.01241">
        <ele>1289.75</ele>
        <time>2015-02-24T11:22:37Z</time>
      </trkpt>
      <trkpt lat="48.04485" lon="7.01252">
        <ele>1289.27</ele>
        <time>2015-02-24T11:22:52Z</time>
      </trkpt>
      <trkpt lat="48.04501" lon="7.01265">
        <ele>1286.38</ele>
        <time>2015-02-24T11:23:07Z</time>
      </trkpt>
      <trkpt lat="48.04516" lon="7.01279">
        <ele>1284.46</ele>
        <time>2015-02-24T11:23:22Z</time>
      </trkpt>
      <trkpt lat="48.04533" lon="7.01292">
        <ele>1283.5</ele>
        <time>2015-02-24T11:23:36Z</time>
      </trkpt>
      <trkpt lat="48.04551" lon="7.01303">
        <ele>1281.09</ele>
        <time>2015-02-24T11:23:53Z</time>
      </trkpt>
      <trkpt lat="48.04567" lon="7.01317">
        <ele>1278.69</ele>
        <time>2015-02-24T11:24:10Z</time>
      </trkpt>
      <trkpt lat="48.04585" lon="7.0133">
        <ele>1277.73</ele>
        <time>2015-02-24T11:24:26Z</time>
      </trkpt>
      <trkpt lat="48.046" lon="7.01343">
        <ele>1275.81</ele>
        <time>2015-02-24T11:24:42Z</time>
      </trkpt>
      <trkpt lat="48.04617" lon="7.01352">
        <ele>1274.36</ele>
        <time>2015-02-24T11:24:57Z</time>
      </trkpt>
      <trkpt lat="48.04634" lon="7.01364">
        <ele>1272.92</ele>
        <time>2015-02-24T11:25:13Z</time>
      </trkpt>
      <trkpt lat="48.04651" lon="7.01378">
        <ele>1271.48</ele>
        <time>2015-02-24T11:25:29Z</time>
      </trkpt>
      <trkpt lat="48.04667" lon="7.01393">
        <ele>1270.52</ele>
        <time>2015-02-24T11:25:43Z</time>
      </trkpt>
      <trkpt lat="48.04681" lon="7.01409">
        <ele>1270.52</ele>
        <time>2015-02-24T11:25:58Z</time>
      </trkpt>
      <trkpt lat="48.04694" lon="7.0143">
        <ele>1269.56</ele>
        <time>2015-02-24T11:26:16Z</time>
      </trkpt>
      <trkpt lat="48.04704" lon="7.01452">
        <ele>1269.56</ele>
        <time>2015-02-24T11:26:32Z</time>
      </trkpt>
      <trkpt lat="48.04706" lon="7.01478">
        <ele>1268.6</ele>
        <time>2015-02-24T11:26:47Z</time>
      </trkpt>
      <trkpt lat="48.04707" lon="7.01505">
        <ele>1268.12</ele>
        <time>2015-02-24T11:27:02Z</time>
      </trkpt>
      <trkpt lat="48.04705" lon="7.01531">
        <ele>1268.12</ele>
        <time>2015-02-24T11:27:18Z</time>
      </trkpt>
      <trkpt lat="48.04706" lon="7.01551">
        <ele>1269.08</ele>
        <time>2015-02-24T11:27:41Z</time>
      </trkpt>
      <trkpt lat="48.04709" lon="7.01558">
        <ele>1269.08</ele>
        <time>2015-02-24T11:28:38Z</time>
      </trkpt>
      <trkpt lat="48.04711" lon="7.01543">
        <ele>1269.56</ele>
        <time>2015-02-24T11:30:06Z</time>
      </trkpt>
      <trkpt lat="48.04726" lon="7.01528">
        <ele>1269.08</ele>
        <time>2015-02-24T11:31:24Z</time>
      </trkpt>
      <trkpt lat="48.04738" lon="7.01509">
        <ele>1269.08</ele>
        <time>2015-02-24T11:31:41Z</time>
      </trkpt>
      <trkpt lat="48.04749" lon="7.01489">
        <ele>1268.12</ele>
        <time>2015-02-24T11:31:57Z</time>
      </trkpt>
      <trkpt lat="48.04766" lon="7.0149">
        <ele>1266.67</ele>
        <time>2015-02-24T11:32:36Z</time>
      </trkpt>
      <trkpt lat="48.04786" lon="7.0149">
        <ele>1265.23</ele>
        <time>2015-02-24T11:32:56Z</time>
      </trkpt>
      <trkpt lat="48.04807" lon="7.01487">
        <ele>1261.87</ele>
        <time>2015-02-24T11:33:17Z</time>
      </trkpt>
      <trkpt lat="48.04829" lon="7.01489">
        <ele>1258.02</ele>
        <time>2015-02-24T11:33:57Z</time>
      </trkpt>
      <trkpt lat="48.04847" lon="7.01499">
        <ele>1256.1</ele>
        <time>2015-02-24T11:34:36Z</time>
      </trkpt>
      <trkpt lat="48.04865" lon="7.01514">
        <ele>1254.18</ele>
        <time>2015-02-24T11:34:53Z</time>
      </trkpt>
      <trkpt lat="48.04884" lon="7.01522">
        <ele>1250.33</ele>
        <time>2015-02-24T11:35:12Z</time>
      </trkpt>
      <trkpt lat="48.04905" lon="7.01531">
        <ele>1246.97</ele>
        <time>2015-02-24T11:35:47Z</time>
      </trkpt>
      <trkpt lat="48.04916" lon="7.0156">
        <ele>1244.08</ele>
        <time>2015-02-24T11:36:09Z</time>
      </trkpt>
      <trkpt lat="48.04929" lon="7.01584">
        <ele>1242.64</ele>
        <time>2015-02-24T11:36:40Z</time>
      </trkpt>
      <trkpt lat="48.04945" lon="7.01602">
        <ele>1241.2</ele>
        <time>2015-02-24T11:37:00Z</time>
      </trkpt>
      <trkpt lat="48.04964" lon="7.01619">
        <ele>1239.76</ele>
        <time>2015-02-24T11:37:18Z</time>
      </trkpt>
      <trkpt lat="48.04989" lon="7.01628">
        <ele>1239.28</ele>
        <time>2015-02-24T11:37:36Z</time>
      </trkpt>
      <trkpt lat="48.05007" lon="7.0164">
        <ele>1237.83</ele>
        <time>2015-02-24T11:37:58Z</time>
      </trkpt>
      <trkpt lat="48.05018" lon="7.01645">
        <ele>1236.87</ele>
        <time>2015-02-24T11:40:01Z</time>
      </trkpt>
      <trkpt lat="48.05031" lon="7.01662">
        <ele>1234.95</ele>
        <time>2015-02-24T11:40:16Z</time>
      </trkpt>
      <trkpt lat="48.05047" lon="7.01676">
        <ele>1234.47</ele>
        <time>2015-02-24T11:40:45Z</time>
      </trkpt>
      <trkpt lat="48.05058" lon="7.01699">
        <ele>1233.99</ele>
        <time>2015-02-24T11:41:02Z</time>
      </trkpt>
      <trkpt lat="48.05071" lon="7.01719">
        <ele>1231.59</ele>
        <time>2015-02-24T11:41:17Z</time>
      </trkpt>
      <trkpt lat="48.05082" lon="7.01744">
        <ele>1229.66</ele>
        <time>2015-02-24T11:41:40Z</time>
      </trkpt>
      <trkpt lat="48.05093" lon="7.01765">
        <ele>1227.74</ele>
        <time>2015-02-24T11:41:55Z</time>
      </trkpt>
      <trkpt lat="48.05106" lon="7.01785">
        <ele>1226.78</ele>
        <time>2015-02-24T11:42:10Z</time>
      </trkpt>
      <trkpt lat="48.05118" lon="7.01807">
        <ele>1224.86</ele>
        <time>2015-02-24T11:42:29Z</time>
      </trkpt>
      <trkpt lat="48.05127" lon="7.01832">
        <ele>1222.45</ele>
        <time>2015-02-24T11:42:51Z</time>
      </trkpt>
      <trkpt lat="48.0512" lon="7.01859">
        <ele>1220.05</ele>
        <time>2015-02-24T11:43:18Z</time>
      </trkpt>
      <trkpt lat="48.05117" lon="7.01891">
        <ele>1216.21</ele>
        <time>2015-02-24T11:43:48Z</time>
      </trkpt>
      <trkpt lat="48.05112" lon="7.01926">
        <ele>1213.8</ele>
        <time>2015-02-24T11:44:13Z</time>
      </trkpt>
      <trkpt lat="48.05108" lon="7.01967">
        <ele>1212.84</ele>
        <time>2015-02-24T11:44:42Z</time>
      </trkpt>
      <trkpt lat="48.05112" lon="7.02007">
        <ele>1211.88</ele>
        <time>2015-02-24T11:45:13Z</time>
      </trkpt>
      <trkpt lat="48.05112" lon="7.02036">
        <ele>1212.84</ele>
        <time>2015-02-24T11:45:40Z</time>
      </trkpt>
      <trkpt lat="48.05105" lon="7.02071">
        <ele>1213.8</ele>
        <time>2015-02-24T11:46:12Z</time>
      </trkpt>
      <trkpt lat="48.05097" lon="7.02103">
        <ele>1214.28</ele>
        <time>2015-02-24T11:46:57Z</time>
      </trkpt>
      <trkpt lat="48.05099" lon="7.02138">
        <ele>1218.61</ele>
        <time>2015-02-24T11:47:30Z</time>
      </trkpt>
      <trkpt lat="48.051" lon="7.02167">
        <ele>1218.61</ele>
        <time>2015-02-24T11:48:02Z</time>
      </trkpt>
      <trkpt lat="48.0509" lon="7.02189">
        <ele>1218.13</ele>
        <time>2015-02-24T11:48:17Z</time>
      </trkpt>
      <trkpt lat="48.05081" lon="7.02213">
        <ele>1217.65</ele>
        <time>2015-02-24T11:48:35Z</time>
      </trkpt>
      <trkpt lat="48.05073" lon="7.02238">
        <ele>1215.72</ele>
        <time>2015-02-24T11:48:54Z</time>
      </trkpt>
      <trkpt lat="48.05066" lon="7.02265">
        <ele>1215.72</ele>
        <time>2015-02-24T11:49:16Z</time>
      </trkpt>
      <trkpt lat="48.05057" lon="7.02288">
        <ele>1216.21</ele>
        <time>2015-02-24T11:49:50Z</time>
      </trkpt>
      <trkpt lat="48.05041" lon="7.02304">
        <ele>1219.09</ele>
        <time>2015-02-24T11:50:13Z</time>
      </trkpt>
      <trkpt lat="48.05026" lon="7.02315">
        <ele>1218.13</ele>
        <time>2015-02-24T11:50:39Z</time>
      </trkpt>
      <trkpt lat="48.0501" lon="7.02329">
        <ele>1219.57</ele>
        <time>2015-02-24T11:51:07Z</time>
      </trkpt>
      <trkpt lat="48.04997" lon="7.02348">
        <ele>1220.05</ele>
        <time>2015-02-24T11:51:23Z</time>
      </trkpt>
      <trkpt lat="48.04983" lon="7.02363">
        <ele>1221.01</ele>
        <time>2015-02-24T11:51:43Z</time>
      </trkpt>
      <trkpt lat="48.04993" lon="7.02368">
        <ele>1220.53</ele>
        <time>2015-02-24T11:52:45Z</time>
      </trkpt>
      <trkpt lat="48.0499" lon="7.02362">
        <ele>1220.53</ele>
        <time>2015-02-24T11:53:59Z</time>
      </trkpt>
      <trkpt lat="48.05007" lon="7.02367">
        <ele>1219.09</ele>
        <time>2015-02-24T11:54:18Z</time>
      </trkpt>
      <trkpt lat="48.05022" lon="7.02363">
        <ele>1217.65</ele>
        <time>2015-02-24T11:55:00Z</time>
      </trkpt>
      <trkpt lat="48.05039" lon="7.02373">
        <ele>1216.21</ele>
        <time>2015-02-24T11:55:19Z</time>
      </trkpt>
      <trkpt lat="48.05055" lon="7.02386">
        <ele>1214.76</ele>
        <time>2015-02-24T11:55:38Z</time>
      </trkpt>
      <trkpt lat="48.05071" lon="7.024">
        <ele>1212.84</ele>
        <time>2015-02-24T11:55:55Z</time>
      </trkpt>
      <trkpt lat="48.05087" lon="7.02413">
        <ele>1207.55</ele>
        <time>2015-02-24T11:56:13Z</time>
      </trkpt>
      <trkpt lat="48.05102" lon="7.02425">
        <ele>1205.15</ele>
        <time>2015-02-24T11:56:33Z</time>
      </trkpt>
      <trkpt lat="48.05117" lon="7.02436">
        <ele>1204.19</ele>
        <time>2015-02-24T11:56:51Z</time>
      </trkpt>
      <trkpt lat="48.05134" lon="7.02447">
        <ele>1202.27</ele>
        <time>2015-02-24T11:57:07Z</time>
      </trkpt>
      <trkpt lat="48.0515" lon="7.02459">
        <ele>1200.82</ele>
        <time>2015-02-24T11:57:22Z</time>
      </trkpt>
      <trkpt lat="48.05166" lon="7.02473">
        <ele>1199.38</ele>
        <time>2015-02-24T11:57:38Z</time>
      </trkpt>
      <trkpt lat="48.05181" lon="7.02487">
        <ele>1197.46</ele>
        <time>2015-02-24T11:57:54Z</time>
      </trkpt>
      <trkpt lat="48.05197" lon="7.02501">
        <ele>1197.94</ele>
        <time>2015-02-24T11:58:09Z</time>
      </trkpt>
      <trkpt lat="48.05213" lon="7.02516">
        <ele>1198.42</ele>
        <time>2015-02-24T11:58:26Z</time>
      </trkpt>
      <trkpt lat="48.0523" lon="7.02528">
        <ele>1198.42</ele>
        <time>2015-02-24T11:58:42Z</time>
      </trkpt>
      <trkpt lat="48.05246" lon="7.0254">
        <ele>1199.86</ele>
        <time>2015-02-24T11:58:59Z</time>
      </trkpt>
      <trkpt lat="48.05263" lon="7.02554">
        <ele>1200.82</ele>
        <time>2015-02-24T11:59:17Z</time>
      </trkpt>
      <trkpt lat="48.05281" lon="7.02551">
        <ele>1204.19</ele>
        <time>2015-02-24T11:59:44Z</time>
      </trkpt>
      <trkpt lat="48.05299" lon="7.02544">
        <ele>1207.55</ele>
        <time>2015-02-24T12:00:03Z</time>
      </trkpt>
      <trkpt lat="48.0531" lon="7.02555">
        <ele>1208.03</ele>
        <time>2015-02-24T12:00:47Z</time>
      </trkpt>
      <trkpt lat="48.05316" lon="7.02583">
        <ele>1209.48</ele>
        <time>2015-02-24T12:01:06Z</time>
      </trkpt>
      <trkpt lat="48.05324" lon="7.02582">
        <ele>1207.55</ele>
        <time>2015-02-24T12:02:53Z</time>
      </trkpt>
      <trkpt lat="48.05337" lon="7.02565">
        <ele>1208.03</ele>
        <time>2015-02-24T12:03:27Z</time>
      </trkpt>
      <trkpt lat="48.05326" lon="7.02577">
        <ele>1202.75</ele>
        <time>2015-02-24T13:16:09Z</time>
      </trkpt>
      <trkpt lat="48.05319" lon="7.02577">
        <ele>1203.71</ele>
        <time>2015-02-24T13:20:30Z</time>
      </trkpt>
      <trkpt lat="48.05318" lon="7.02572">
        <ele>1205.63</ele>
        <time>2015-02-24T13:22:01Z</time>
      </trkpt>
      <trkpt lat="48.05316" lon="7.02574">
        <ele>1205.63</ele>
        <time>2015-02-24T13:24:53Z</time>
      </trkpt>
      <trkpt lat="48.05329" lon="7.02557">
        <ele>1208.51</ele>
        <time>2015-02-24T13:25:45Z</time>
      </trkpt>
      <trkpt lat="48.05346" lon="7.02549">
        <ele>1210.92</ele>
        <time>2015-02-24T13:26:07Z</time>
      </trkpt>
      <trkpt lat="48.05345" lon="7.0255">
        <ele>1210.92</ele>
        <time>2015-02-24T13:28:07Z</time>
      </trkpt>
      <trkpt lat="48.05361" lon="7.02542">
        <ele>1215.24</ele>
        <time>2015-02-24T13:28:28Z</time>
      </trkpt>
      <trkpt lat="48.05378" lon="7.02536">
        <ele>1218.61</ele>
        <time>2015-02-24T13:28:51Z</time>
      </trkpt>
      <trkpt lat="48.05396" lon="7.02528">
        <ele>1221.97</ele>
        <time>2015-02-24T13:29:16Z</time>
      </trkpt>
      <trkpt lat="48.05414" lon="7.0252">
        <ele>1224.38</ele>
        <time>2015-02-24T13:29:40Z</time>
      </trkpt>
      <trkpt lat="48.05433" lon="7.02507">
        <ele>1227.26</ele>
        <time>2015-02-24T13:30:04Z</time>
      </trkpt>
      <trkpt lat="48.05451" lon="7.02501">
        <ele>1231.59</ele>
        <time>2015-02-24T13:30:29Z</time>
      </trkpt>
      <trkpt lat="48.05471" lon="7.0249">
        <ele>1233.51</ele>
        <time>2015-02-24T13:30:52Z</time>
      </trkpt>
      <trkpt lat="48.05483" lon="7.02484">
        <ele>1235.43</ele>
        <time>2015-02-24T13:32:28Z</time>
      </trkpt>
      <trkpt lat="48.05497" lon="7.0249">
        <ele>1236.39</ele>
        <time>2015-02-24T13:32:48Z</time>
      </trkpt>
      <trkpt lat="48.05514" lon="7.02497">
        <ele>1237.83</ele>
        <time>2015-02-24T13:33:10Z</time>
      </trkpt>
      <trkpt lat="48.05528" lon="7.02516">
        <ele>1237.35</ele>
        <time>2015-02-24T13:33:29Z</time>
      </trkpt>
      <trkpt lat="48.05536" lon="7.02534">
        <ele>1236.39</ele>
        <time>2015-02-24T13:33:52Z</time>
      </trkpt>
      <trkpt lat="48.05547" lon="7.0254">
        <ele>1237.83</ele>
        <time>2015-02-24T13:36:21Z</time>
      </trkpt>
      <trkpt lat="48.05563" lon="7.02524">
        <ele>1239.28</ele>
        <time>2015-02-24T13:37:02Z</time>
      </trkpt>
      <trkpt lat="48.05577" lon="7.02499">
        <ele>1241.68</ele>
        <time>2015-02-24T13:37:33Z</time>
      </trkpt>
      <trkpt lat="48.05596" lon="7.02499">
        <ele>1241.68</ele>
        <time>2015-02-24T13:37:57Z</time>
      </trkpt>
      <trkpt lat="48.05618" lon="7.02495">
        <ele>1240.24</ele>
        <time>2015-02-24T13:38:34Z</time>
      </trkpt>
      <trkpt lat="48.05635" lon="7.02463">
        <ele>1238.32</ele>
        <time>2015-02-24T13:39:05Z</time>
      </trkpt>
      <trkpt lat="48.05652" lon="7.02439">
        <ele>1237.35</ele>
        <time>2015-02-24T13:39:33Z</time>
      </trkpt>
      <trkpt lat="48.05673" lon="7.02417">
        <ele>1235.91</ele>
        <time>2015-02-24T13:40:08Z</time>
      </trkpt>
      <trkpt lat="48.05687" lon="7.02387">
        <ele>1235.43</ele>
        <time>2015-02-24T13:40:38Z</time>
      </trkpt>
      <trkpt lat="48.05711" lon="7.0237">
        <ele>1233.03</ele>
        <time>2015-02-24T13:41:16Z</time>
      </trkpt>
      <trkpt lat="48.05723" lon="7.02332">
        <ele>1231.11</ele>
        <time>2015-02-24T13:41:51Z</time>
      </trkpt>
      <trkpt lat="48.05717" lon="7.02296">
        <ele>1229.66</ele>
        <time>2015-02-24T13:42:26Z</time>
      </trkpt>
      <trkpt lat="48.05711" lon="7.02254">
        <ele>1228.22</ele>
        <time>2015-02-24T13:43:06Z</time>
      </trkpt>
      <trkpt lat="48.05707" lon="7.02245">
        <ele>1228.22</ele>
        <time>2015-02-24T13:43:32Z</time>
      </trkpt>
      <trkpt lat="48.057" lon="7.02218">
        <ele>1231.11</ele>
        <time>2015-02-24T13:44:07Z</time>
      </trkpt>
      <trkpt lat="48.05682" lon="7.02189">
        <ele>1233.51</ele>
        <time>2015-02-24T13:44:40Z</time>
      </trkpt>
      <trkpt lat="48.05671" lon="7.02166">
        <ele>1236.39</ele>
        <time>2015-02-24T13:45:08Z</time>
      </trkpt>
      <trkpt lat="48.05654" lon="7.02152">
        <ele>1237.83</ele>
        <time>2015-02-24T13:46:07Z</time>
      </trkpt>
      <trkpt lat="48.05648" lon="7.0214">
        <ele>1240.24</ele>
        <time>2015-02-24T13:46:53Z</time>
      </trkpt>
      <trkpt lat="48.05659" lon="7.02102">
        <ele>1241.68</ele>
        <time>2015-02-24T13:47:21Z</time>
      </trkpt>
      <trkpt lat="48.05659" lon="7.02074">
        <ele>1243.12</ele>
        <time>2015-02-24T13:47:54Z</time>
      </trkpt>
      <trkpt lat="48.05663" lon="7.02045">
        <ele>1246.01</ele>
        <time>2015-02-24T13:48:18Z</time>
      </trkpt>
      <trkpt lat="48.05668" lon="7.02018">
        <ele>1247.93</ele>
        <time>2015-02-24T13:48:39Z</time>
      </trkpt>
      <trkpt lat="48.05677" lon="7.0199">
        <ele>1249.37</ele>
        <time>2015-02-24T13:48:56Z</time>
      </trkpt>
      <trkpt lat="48.05686" lon="7.01958">
        <ele>1251.77</ele>
        <time>2015-02-24T13:49:15Z</time>
      </trkpt>
      <trkpt lat="48.05694" lon="7.0193">
        <ele>1252.25</ele>
        <time>2015-02-24T13:49:37Z</time>
      </trkpt>
      <trkpt lat="48.05692" lon="7.01917">
        <ele>1253.22</ele>
        <time>2015-02-24T13:50:23Z</time>
      </trkpt>
      <trkpt lat="48.05692" lon="7.01909">
        <ele>1253.22</ele>
        <time>2015-02-24T13:53:07Z</time>
      </trkpt>
      <trkpt lat="48.05677" lon="7.01896">
        <ele>1254.66</ele>
        <time>2015-02-24T13:53:31Z</time>
      </trkpt>
      <trkpt lat="48.05664" lon="7.01878">
        <ele>1256.1</ele>
        <time>2015-02-24T13:53:51Z</time>
      </trkpt>
      <trkpt lat="48.05645" lon="7.01883">
        <ele>1257.06</ele>
        <time>2015-02-24T13:54:15Z</time>
      </trkpt>
      <trkpt lat="48.05625" lon="7.01895">
        <ele>1257.06</ele>
        <time>2015-02-24T13:54:36Z</time>
      </trkpt>
      <trkpt lat="48.05605" lon="7.01905">
        <ele>1258.5</ele>
        <time>2015-02-24T13:54:58Z</time>
      </trkpt>
      <trkpt lat="48.05588" lon="7.01908">
        <ele>1258.5</ele>
        <time>2015-02-24T13:55:19Z</time>
      </trkpt>
      <trkpt lat="48.05568" lon="7.01911">
        <ele>1259.46</ele>
        <time>2015-02-24T13:55:41Z</time>
      </trkpt>
      <trkpt lat="48.05551" lon="7.01905">
        <ele>1260.43</ele>
        <time>2015-02-24T13:56:00Z</time>
      </trkpt>
      <trkpt lat="48.05534" lon="7.01899">
        <ele>1261.87</ele>
        <time>2015-02-24T13:56:22Z</time>
      </trkpt>
      <trkpt lat="48.05525" lon="7.01887">
        <ele>1262.83</ele>
        <time>2015-02-24T13:57:20Z</time>
      </trkpt>
      <trkpt lat="48.05502" lon="7.01866">
        <ele>1263.31</ele>
        <time>2015-02-24T13:58:07Z</time>
      </trkpt>
      <trkpt lat="48.05484" lon="7.01858">
        <ele>1263.31</ele>
        <time>2015-02-24T13:58:30Z</time>
      </trkpt>
      <trkpt lat="48.05466" lon="7.01845">
        <ele>1262.83</ele>
        <time>2015-02-24T13:58:51Z</time>
      </trkpt>
      <trkpt lat="48.05447" lon="7.01835">
        <ele>1262.35</ele>
        <time>2015-02-24T13:59:11Z</time>
      </trkpt>
      <trkpt lat="48.05428" lon="7.01823">
        <ele>1261.39</ele>
        <time>2015-02-24T13:59:31Z</time>
      </trkpt>
      <trkpt lat="48.05408" lon="7.01813">
        <ele>1259.94</ele>
        <time>2015-02-24T13:59:51Z</time>
      </trkpt>
      <trkpt lat="48.05406" lon="7.01791">
        <ele>1259.94</ele>
        <time>2015-02-24T14:00:17Z</time>
      </trkpt>
      <trkpt lat="48.05387" lon="7.01767">
        <ele>1258.02</ele>
        <time>2015-02-24T14:00:44Z</time>
      </trkpt>
      <trkpt lat="48.05368" lon="7.01753">
        <ele>1255.62</ele>
        <time>2015-02-24T14:01:08Z</time>
      </trkpt>
      <trkpt lat="48.05347" lon="7.01738">
        <ele>1252.25</ele>
        <time>2015-02-24T14:01:38Z</time>
      </trkpt>
      <trkpt lat="48.05324" lon="7.01731">
        <ele>1249.85</ele>
        <time>2015-02-24T14:02:04Z</time>
      </trkpt>
      <trkpt lat="48.05306" lon="7.01743">
        <ele>1248.41</ele>
        <time>2015-02-24T14:02:30Z</time>
      </trkpt>
      <trkpt lat="48.05288" lon="7.01727">
        <ele>1245.04</ele>
        <time>2015-02-24T14:02:52Z</time>
      </trkpt>
      <trkpt lat="48.0527" lon="7.01709">
        <ele>1242.64</ele>
        <time>2015-02-24T14:03:15Z</time>
      </trkpt>
      <trkpt lat="48.05252" lon="7.01686">
        <ele>1239.76</ele>
        <time>2015-02-24T14:03:40Z</time>
      </trkpt>
      <trkpt lat="48.0525" lon="7.01657">
        <ele>1238.32</ele>
        <time>2015-02-24T14:04:12Z</time>
      </trkpt>
      <trkpt lat="48.05229" lon="7.01628">
        <ele>1235.91</ele>
        <time>2015-02-24T14:04:47Z</time>
      </trkpt>
      <trkpt lat="48.05221" lon="7.0161">
        <ele>1234.95</ele>
        <time>2015-02-24T14:05:29Z</time>
      </trkpt>
      <trkpt lat="48.05217" lon="7.01561">
        <ele>1232.55</ele>
        <time>2015-02-24T14:06:05Z</time>
      </trkpt>
      <trkpt lat="48.05204" lon="7.01532">
        <ele>1231.59</ele>
        <time>2015-02-24T14:06:38Z</time>
      </trkpt>
      <trkpt lat="48.05195" lon="7.01501">
        <ele>1230.14</ele>
        <time>2015-02-24T14:07:12Z</time>
      </trkpt>
      <trkpt lat="48.05198" lon="7.01474">
        <ele>1228.7</ele>
        <time>2015-02-24T14:07:47Z</time>
      </trkpt>
      <trkpt lat="48.052" lon="7.01477">
        <ele>1228.7</ele>
        <time>2015-02-24T14:09:42Z</time>
      </trkpt>
      <trkpt lat="48.05204" lon="7.01472">
        <ele>1228.7</ele>
        <time>2015-02-24T14:11:45Z</time>
      </trkpt>
      <trkpt lat="48.05225" lon="7.01473">
        <ele>1227.74</ele>
        <time>2015-02-24T14:12:06Z</time>
      </trkpt>
      <trkpt lat="48.05246" lon="7.01456">
        <ele>1225.82</ele>
        <time>2015-02-24T14:12:35Z</time>
      </trkpt>
      <trkpt lat="48.05245" lon="7.01451">
        <ele>1229.66</ele>
        <time>2015-02-24T14:15:05Z</time>
      </trkpt>
    </trkseg>
  </trk>
</gpx>